Time;durP1;ratioP1;P1;durP2;ratioP2;P2;SDS_P1;SDS_P2;PMS_P1;PMS_P2;Temp;Humidity;BMP_temperature;BMP_pressure;BME280_temperature;BME280_humidity;BME280_pressure;Samples;Min_cycle;Max_cycle;Signal;HPM_P1;HPM_P2
2023/07/19 00:01:55;;;;;;;1999.90;999.90;;;17.90;99.90;;;;;;5034623;28;20037;-72
2023/07/19 00:04:21;;;;;;;1999.90;999.90;;;18.00;99.90;;;;;;5052702;28;20064;-72
2023/07/19 00:06:47;;;;;;;1999.90;999.90;;;18.00;99.90;;;;;;5034773;28;20068;-77
2023/07/19 00:09:12;;;;;;;1999.90;999.90;;;18.00;99.90;;;;;;5050971;28;20021;-72
2023/07/19 00:11:38;;;;;;;1999.90;999.90;;;18.00;99.90;;;;;;5052157;28;20021;-72
2023/07/19 00:14:05;;;;;;;1999.90;999.90;;;18.00;99.90;;;;;;5052279;28;20021;-72
2023/07/19 00:16:32;;;;;;;1999.90;999.90;;;18.00;99.90;;;;;;5051781;28;20057;-72
2023/07/19 00:18:57;;;;;;;1999.90;999.90;;;18.00;99.90;;;;;;5051915;28;20025;-72
2023/07/19 00:21:23;;;;;;;1999.90;999.90;;;18.00;99.90;;;;;;5047611;28;20353;-77
2023/07/19 00:23:49;;;;;;;1999.90;999.90;;;18.00;99.90;;;;;;5054314;28;20107;-72
2023/07/19 00:26:14;;;;;;;1999.90;999.90;;;18.00;99.90;;;;;;5055724;28;20025;-72
2023/07/19 00:28:40;;;;;;;1999.90;999.90;;;18.00;99.90;;;;;;5055945;28;20021;-72
2023/07/19 00:31:05;;;;;;;1999.90;999.90;;;18.00;99.90;;;;;;5037987;28;20032;-72
2023/07/19 00:33:31;;;;;;;1999.90;999.90;;;18.00;99.90;;;;;;5055662;28;20100;-77
2023/07/19 00:35:57;;;;;;;1999.90;999.90;;;18.00;99.90;;;;;;5055786;28;20108;-77
2023/07/19 00:38:23;;;;;;;1999.90;999.90;;;18.00;99.90;;;;;;5055597;28;20032;-72
2023/07/19 00:40:49;;;;;;;1999.90;999.90;;;18.00;99.90;;;;;;5055200;28;20100;-72
2023/07/19 00:43:15;;;;;;;1999.90;999.90;;;18.00;99.90;;;;;;5055911;28;20021;-72
2023/07/19 00:45:46;;;;;;;1999.90;999.90;;;18.10;99.90;;;;;;5036464;28;20079;-72
2023/07/19 00:48:13;;;;;;;1999.90;999.90;;;18.10;99.90;;;;;;5055730;28;20048;-72
2023/07/19 00:50:38;;;;;;;1999.90;999.90;;;18.10;99.90;;;;;;5037562;28;20025;-72
2023/07/19 00:53:05;;;;;;;1999.90;999.90;;;18.10;99.90;;;;;;5055592;28;20067;-72
2023/07/19 00:55:30;;;;;;;1999.90;999.90;;;18.00;99.90;;;;;;5055353;28;20021;-72
2023/07/19 00:57:56;;;;;;;1999.90;999.90;;;18.00;99.90;;;;;;5055568;28;20436;-72
2023/07/19 01:00:23;;;;;;;1999.90;999.90;;;18.00;99.90;;;;;;5055299;28;20028;-78
2023/07/19 01:02:49;;;;;;;1999.90;999.90;;;18.00;99.90;;;;;;5054196;28;20025;-72
2023/07/19 01:05:14;;;;;;;1999.90;999.90;;;18.00;99.90;;;;;;5055133;28;20495;-72
2023/07/19 01:07:40;;;;;;;1999.90;999.90;;;18.00;99.90;;;;;;5055081;28;20099;-72
2023/07/19 01:10:06;;;;;;;1999.90;999.90;;;18.00;99.90;;;;;;5054092;28;20021;-72
2023/07/19 01:12:32;;;;;;;1999.90;999.90;;;18.00;99.90;;;;;;5054348;28;20021;-77
2023/07/19 01:14:57;;;;;;;1999.90;999.90;;;17.90;99.90;;;;;;5054302;28;20103;-72
2023/07/19 01:17:23;;;;;;;1999.90;999.90;;;18.00;99.90;;;;;;5054580;28;20048;-72
2023/07/19 01:19:49;;;;;;;1999.90;999.90;;;18.00;99.90;;;;;;5053798;28;20021;-72
2023/07/19 01:22:15;;;;;;;1999.90;999.90;;;18.00;99.90;;;;;;5034683;28;20025;-72
2023/07/19 01:24:43;;;;;;;1999.90;999.90;;;17.90;99.90;;;;;;5037062;28;20075;-72
2023/07/19 01:27:08;;;;;;;1999.90;999.90;;;17.90;99.90;;;;;;5054472;28;20171;-77
2023/07/19 01:29:34;;;;;;;1999.90;999.90;;;17.90;99.90;;;;;;5054519;28;20464;-72
2023/07/19 01:31:59;;;;;;;1999.90;999.90;;;17.90;99.90;;;;;;5054483;28;20029;-72
2023/07/19 01:34:25;;;;;;;1999.90;999.90;;;17.90;99.90;;;;;;5054577;28;20471;-72
2023/07/19 01:36:51;;;;;;;1999.90;999.90;;;17.90;99.90;;;;;;5036763;28;20121;-72
2023/07/19 01:39:16;;;;;;;1999.90;999.90;;;17.80;99.90;;;;;;5054710;28;20102;-72
2023/07/19 01:41:42;;;;;;;1999.90;999.90;;;17.80;99.90;;;;;;5054055;28;20025;-77
2023/07/19 01:44:07;;;;;;;1999.90;999.90;;;17.80;99.90;;;;;;5054318;28;20083;-72
2023/07/19 01:46:35;;;;;;;1999.90;999.90;;;17.80;99.90;;;;;;5053421;28;20510;-72
2023/07/19 01:49:01;;;;;;;1999.90;999.90;;;17.80;99.90;;;;;;5054462;28;20024;-72
2023/07/19 01:51:26;;;;;;;1999.90;999.90;;;17.80;99.90;;;;;;5054082;28;20025;-77
2023/07/19 01:53:52;;;;;;;1999.90;999.90;;;17.80;99.90;;;;;;5054065;28;20017;-77
2023/07/19 01:56:18;;;;;;;1999.90;999.90;;;17.80;99.90;;;;;;5054316;28;20052;-72
2023/07/19 01:58:43;;;;;;;1999.90;999.90;;;17.70;99.90;;;;;;5036008;28;20381;-72
2023/07/19 02:01:09;;;;;;;1999.90;999.90;;;17.70;99.90;;;;;;5036664;28;20035;-72
2023/07/19 02:03:34;;;;;;;1999.90;999.90;;;17.70;99.90;;;;;;5054005;28;20029;-72
2023/07/19 02:06:00;;;;;;;1999.90;999.90;;;17.60;99.90;;;;;;5054072;28;20025;-77
2023/07/19 02:08:26;;;;;;;1999.90;999.90;;;17.70;99.90;;;;;;5054023;28;20067;-72
2023/07/19 02:10:54;;;;;;;1999.90;999.90;;;17.60;99.90;;;;;;5054080;28;20472;-72
2023/07/19 02:13:19;;;;;;;1999.90;999.90;;;17.60;99.90;;;;;;5035857;28;20029;-72
2023/07/19 02:15:45;;;;;;;1999.90;999.90;;;17.60;99.90;;;;;;5032749;28;20053;-72
2023/07/19 02:18:11;;;;;;;1999.90;999.90;;;17.60;99.90;;;;;;5032671;28;20033;-72
2023/07/19 02:20:36;;;;;;;1999.90;999.90;;;17.50;99.90;;;;;;5034106;28;20032;-77
2023/07/19 02:23:02;;;;;;;1999.90;999.90;;;17.50;99.90;;;;;;5033676;28;20439;-72
2023/07/19 02:25:28;;;;;;;1999.90;999.90;;;17.50;99.90;;;;;;5033911;28;20110;-72
2023/07/19 02:27:53;;;;;;;1999.90;999.90;;;17.50;99.90;;;;;;5033677;28;20029;-72
2023/07/19 02:30:19;;;;;;;1999.90;999.90;;;17.50;99.90;;;;;;5032180;28;20052;-72
2023/07/19 02:32:44;;;;;;;1999.90;999.90;;;17.50;99.90;;;;;;5033795;28;20089;-77
2023/07/19 02:35:10;;;;;;;1999.90;999.90;;;17.50;99.90;;;;;;5033440;28;20026;-72
2023/07/19 02:37:35;;;;;;;1999.90;999.90;;;17.50;99.90;;;;;;5033966;28;20451;-72
2023/07/19 02:40:01;;;;;;;1999.90;999.90;;;17.50;99.90;;;;;;5034232;28;20096;-72
2023/07/19 02:42:27;;;;;;;1999.90;999.90;;;17.50;99.90;;;;;;5032732;28;20084;-72
2023/07/19 02:44:52;;;;;;;1999.90;999.90;;;17.40;99.90;;;;;;5033281;28;20480;-72
2023/07/19 02:47:18;;;;;;;1999.90;999.90;;;17.40;99.90;;;;;;5033364;28;20030;-72
2023/07/19 02:49:43;;;;;;;1999.90;999.90;;;17.40;99.90;;;;;;5033319;28;20100;-72
2023/07/19 02:52:09;;;;;;;1999.90;999.90;;;17.30;99.90;;;;;;5033666;28;20026;-72
2023/07/19 02:54:35;;;;;;;1999.90;999.90;;;17.20;99.90;;;;;;5033112;28;20018;-72
2023/07/19 02:57:01;;;;;;;1999.90;999.90;;;17.20;99.90;;;;;;5033149;28;20104;-77
2023/07/19 02:59:26;;;;;;;1999.90;999.90;;;17.10;99.90;;;;;;5033287;28;20477;-72
2023/07/19 03:01:52;;;;;;;1999.90;999.90;;;17.10;99.90;;;;;;5032800;28;20061;-72
2023/07/19 03:04:18;;;;;;;1999.90;999.90;;;17.00;99.90;;;;;;5033155;28;20034;-72
2023/07/19 03:06:43;;;;;;;1999.90;999.90;;;17.00;99.90;;;;;;5032638;28;20030;-72
2023/07/19 03:09:11;;;;;;;1999.90;999.90;;;17.00;99.90;;;;;;5032536;28;20025;-77
2023/07/19 03:11:36;;;;;;;1999.90;999.90;;;17.00;99.90;;;;;;5032653;28;20052;-72
2023/07/19 03:14:02;;;;;;;1999.90;999.90;;;17.00;99.90;;;;;;5032717;28;20049;-72
2023/07/19 03:16:27;;;;;;;1999.90;999.90;;;17.00;99.90;;;;;;5049187;28;20056;-72
2023/07/19 03:18:53;;;;;;;1999.90;999.90;;;17.00;99.90;;;;;;5034419;28;20474;-72
2023/07/19 03:21:20;;;;;;;1999.90;999.90;;;17.00;99.90;;;;;;5050536;28;20027;-72
2023/07/19 03:23:46;;;;;;;1999.90;999.90;;;17.00;99.90;;;;;;5052762;28;20044;-77
2023/07/19 03:26:11;;;;;;;1999.90;999.90;;;17.10;99.90;;;;;;5052531;28;20475;-71
2023/07/19 03:28:37;;;;;;;1999.90;999.90;;;17.10;99.90;;;;;;5052753;28;20038;-72
2023/07/19 03:31:02;;;;;;;1999.90;999.90;;;17.10;99.90;;;;;;5052227;28;20028;-73
2023/07/19 03:33:28;;;;;;;1999.90;999.90;;;17.10;99.90;;;;;;5052281;28;20379;-72
2023/07/19 03:35:54;;;;;;;1999.90;999.90;;;17.10;99.90;;;;;;5055011;28;20025;-72
2023/07/19 03:38:20;;;;;;;1999.90;999.90;;;17.10;99.90;;;;;;5035710;28;20032;-77
2023/07/19 03:40:45;;;;;;;1999.90;999.90;;;17.10;99.90;;;;;;5057462;28;20025;-76
2023/07/19 03:43:11;;;;;;;1999.90;999.90;;;17.10;99.90;;;;;;5054070;28;20021;-72
2023/07/19 03:45:38;;;;;;;1999.90;999.90;;;17.10;99.90;;;;;;5052426;28;20068;-72
2023/07/19 03:48:04;;;;;;;1999.90;999.90;;;17.00;99.90;;;;;;5033977;28;20021;-76
2023/07/19 03:50:30;;;;;;;1999.90;999.90;;;17.00;99.90;;;;;;5052549;28;20399;-72
2023/07/19 03:52:55;;;;;;;1999.90;999.90;;;17.00;99.90;;;;;;5052355;28;20526;-72
2023/07/19 03:55:21;;;;;;;1999.90;999.90;;;16.90;99.90;;;;;;5052209;28;20601;-72
2023/07/19 03:57:47;;;;;;;1999.90;999.90;;;16.90;99.90;;;;;;5053147;28;20040;-72
2023/07/19 04:00:13;;;;;;;1999.90;999.90;;;16.90;99.90;;;;;;5054713;28;20036;-72
2023/07/19 04:02:38;;;;;;;1999.90;999.90;;;16.80;99.90;;;;;;5038249;28;20021;-76
2023/07/19 04:05:04;;;;;;;1999.90;999.90;;;16.80;99.90;;;;;;5056454;28;20440;-72
2023/07/19 04:07:30;;;;;;;1999.90;999.90;;;16.80;99.90;;;;;;5056051;28;20017;-72
2023/07/19 04:09:55;;;;;;;1999.90;999.90;;;16.80;99.90;;;;;;5055599;28;20372;-72
2023/07/19 04:12:21;;;;;;;1999.90;999.90;;;16.80;99.90;;;;;;5054259;28;20032;-72
2023/07/19 04:14:47;;;;;;;1999.90;999.90;;;16.80;99.90;;;;;;5052719;28;20503;-72
2023/07/19 04:17:12;;;;;;;1999.90;999.90;;;16.70;99.90;;;;;;5056166;28;20072;-77
2023/07/19 04:19:38;;;;;;;1999.90;999.90;;;16.80;99.90;;;;;;5055732;28;20395;-72
2023/07/19 04:22:04;;;;;;;1999.90;999.90;;;16.80;99.90;;;;;;5052644;28;20074;-72
2023/07/19 04:24:29;;;;;;;1999.90;999.90;;;16.70;99.90;;;;;;5055632;28;20025;-72
2023/07/19 04:26:55;;;;;;;1999.90;999.90;;;16.70;99.90;;;;;;5055717;28;20548;-76
2023/07/19 04:29:21;;;;;;;1999.90;999.90;;;16.70;99.90;;;;;;5037657;28;20439;-76
2023/07/19 04:31:47;;;;;;;1999.90;999.90;;;16.70;99.90;;;;;;5055809;28;20028;-72
2023/07/19 04:34:13;;;;;;;1999.90;999.90;;;16.60;99.90;;;;;;5055461;28;20100;-72
2023/07/19 04:36:39;;;;;;;1999.90;999.90;;;16.70;99.90;;;;;;5055615;28;20126;-72
2023/07/19 04:39:05;;;;;;;1999.90;999.90;;;16.60;99.90;;;;;;5055598;28;20123;-72
2023/07/19 04:41:32;;;;;;;1999.90;999.90;;;16.60;99.90;;;;;;5055862;28;20111;-72
2023/07/19 04:43:58;;;;;;;1999.90;999.90;;;16.60;99.90;;;;;;5054853;28;20029;-72
2023/07/19 04:46:24;;;;;;;1999.90;999.90;;;16.60;99.90;;;;;;5055320;28;20040;-72
2023/07/19 04:48:53;;;;;;;1999.90;999.90;;;16.60;99.90;;;;;;5037316;28;20099;-72
2023/07/19 04:51:18;;;;;;;1999.90;999.90;;;16.60;99.90;;;;;;5037775;28;20017;-72
2023/07/19 04:53:44;;;;;;;1999.90;999.90;;;16.60;99.90;;;;;;5037471;28;20387;-77
2023/07/19 04:56:10;;;;;;;1999.90;999.90;;;16.60;99.90;;;;;;5055211;28;20067;-72
2023/07/19 04:58:35;;;;;;;1999.90;999.90;;;16.60;99.90;;;;;;5051451;28;20017;-72
2023/07/19 05:01:08;;;;;;;1999.90;999.90;;;16.70;99.90;;;;;;5054675;28;20095;-72
2023/07/19 05:03:35;;;;;;;1999.90;999.90;;;16.70;99.90;;;;;;5049632;28;20035;-72
2023/07/19 05:06:00;;;;;;;1999.90;999.90;;;16.70;99.90;;;;;;5074988;28;20059;-76
2023/07/19 05:08:26;;;;;;;1999.90;999.90;;;16.70;99.90;;;;;;5074272;28;20068;-72
2023/07/19 05:10:52;;;;;;;1999.90;999.90;;;16.70;99.90;;;;;;5058967;28;20029;-72
2023/07/19 05:13:17;;;;;;;1999.90;999.90;;;16.80;99.90;;;;;;5054643;28;20041;-72
2023/07/19 05:15:43;;;;;;;1999.90;999.90;;;16.80;99.90;;;;;;5033111;28;20175;-72
2023/07/19 05:18:08;;;;;;;1999.90;999.90;;;16.80;99.90;;;;;;5034807;28;20059;-72
2023/07/19 05:20:35;;;;;;;1999.90;999.90;;;16.80;99.90;;;;;;5034417;28;20018;-72
2023/07/19 05:23:00;;;;;;;1999.90;999.90;;;16.90;99.90;;;;;;5032613;28;20073;-72
2023/07/19 05:25:26;;;;;;;1999.90;999.90;;;16.90;99.90;;;;;;5034179;28;20439;-72
2023/07/19 05:27:52;;;;;;;1999.90;999.90;;;16.90;99.90;;;;;;5034504;28;20027;-72
2023/07/19 05:30:17;;;;;;;1999.90;999.90;;;17.00;99.90;;;;;;5031527;28;20040;-72
2023/07/19 05:32:43;;;;;;;1999.90;999.90;;;17.00;99.90;;;;;;5032812;28;20037;-76
2023/07/19 05:35:09;;;;;;;1999.90;999.90;;;17.10;99.90;;;;;;5033959;28;20026;-76
2023/07/19 05:37:34;;;;;;;1999.90;999.90;;;17.10;99.90;;;;;;5030499;28;20072;-72
2023/07/19 05:40:00;;;;;;;1999.90;999.90;;;17.20;99.90;;;;;;5033861;28;20525;-72
2023/07/19 05:42:26;;;;;;;1999.90;999.90;;;17.30;99.90;;;;;;5034289;28;20128;-72
2023/07/19 05:44:51;;;;;;;1999.90;999.90;;;17.30;99.90;;;;;;5033070;28;20018;-72
2023/07/19 05:47:17;;;;;;;1999.90;999.90;;;17.40;99.90;;;;;;5033991;28;20072;-76
2023/07/19 05:49:44;;;;;;;1999.90;999.90;;;17.50;99.90;;;;;;5033510;28;20026;-72
2023/07/19 05:52:10;;;;;;;1999.90;999.90;;;17.50;99.90;;;;;;5032952;28;20032;-72
2023/07/19 05:54:36;;;;;;;1999.90;999.90;;;17.60;99.90;;;;;;5033929;28;20095;-72
2023/07/19 05:57:01;;;;;;;1999.90;999.90;;;17.70;99.90;;;;;;5032852;28;20073;-72
2023/07/19 05:59:28;;;;;;;1999.90;999.90;;;17.80;99.90;;;;;;5033533;28;20038;-76
2023/07/19 06:01:54;;;;;;;1999.90;999.90;;;17.90;99.90;;;;;;5032177;28;20037;-72
2023/07/19 06:04:20;;;;;;;1999.90;999.90;;;17.90;99.90;;;;;;5032379;28;20080;-72
2023/07/19 06:06:46;;;;;;;1999.90;999.90;;;18.00;99.90;;;;;;5033563;28;20108;-72
2023/07/19 06:09:12;;;;;;;1999.90;999.90;;;18.00;99.90;;;;;;5032975;28;20528;-73
2023/07/19 06:11:37;;;;;;;1999.90;999.90;;;18.10;99.90;;;;;;5033258;28;20117;-76
2023/07/19 06:14:03;;;;;;;1999.90;999.90;;;18.30;99.90;;;;;;5045733;28;20440;-76
2023/07/19 06:16:29;;;;;;;1999.90;999.90;;;18.60;99.90;;;;;;5049364;28;20125;-72
2023/07/19 06:18:54;;;;;;;1999.90;999.90;;;18.80;99.90;;;;;;5064116;28;20056;-73
2023/07/19 06:21:21;;;;;;;1999.90;999.90;;;19.00;99.90;;;;;;5065165;28;20075;-72
2023/07/19 06:23:47;;;;;;;1999.90;999.90;;;19.10;99.90;;;;;;5051002;28;20032;-72
2023/07/19 06:26:13;;;;;;;1999.90;999.90;;;19.10;99.90;;;;;;5053840;28;20442;-72
2023/07/19 06:28:39;;;;;;;1999.90;999.90;;;19.30;99.90;;;;;;5070658;28;20032;-72
2023/07/19 06:31:04;;;;;;;1999.90;999.90;;;19.60;99.90;;;;;;5050930;28;20402;-72
2023/07/19 06:33:30;;;;;;;1999.90;999.90;;;19.90;99.90;;;;;;5051269;28;20025;-72
2023/07/19 06:35:56;;;;;;;1999.90;999.90;;;20.00;99.90;;;;;;5051496;28;20029;-72
2023/07/19 06:38:22;;;;;;;1999.90;999.90;;;19.80;99.90;;;;;;5050314;28;20032;-72
2023/07/19 06:40:47;;;;;;;1999.90;999.90;;;19.70;99.90;;;;;;5050686;28;20044;-72
2023/07/19 06:43:13;;;;;;;1999.90;999.90;;;19.70;99.90;;;;;;5069041;28;20060;-72
2023/07/19 06:45:39;;;;;;;1999.90;999.90;;;19.70;99.90;;;;;;5070671;28;20062;-73
2023/07/19 06:48:05;;;;;;;1999.90;999.90;;;19.70;99.90;;;;;;5068316;28;20017;-72
2023/07/19 06:50:31;;;;;;;1999.90;999.90;;;19.80;99.90;;;;;;5051095;28;20029;-77
2023/07/19 06:52:56;;;;;;;1999.90;999.90;;;19.80;99.90;;;;;;5051181;28;20024;-72
2023/07/19 06:55:23;;;;;;;1999.90;999.90;;;19.80;99.90;;;;;;5051329;28;20037;-73
2023/07/19 06:57:48;;;;;;;1999.90;999.90;;;19.80;99.90;;;;;;5048382;28;20024;-73
2023/07/19 07:00:14;;;;;;;1999.90;999.90;;;19.80;99.90;;;;;;5033098;28;20032;-72
2023/07/19 07:02:40;;;;;;;1999.90;999.90;;;19.80;99.90;;;;;;5048010;28;20025;-72
2023/07/19 07:05:06;;;;;;;1999.90;999.90;;;19.70;99.90;;;;;;5050256;28;20037;-73
2023/07/19 07:07:32;;;;;;;1999.90;999.90;;;19.70;99.90;;;;;;5049655;28;20403;-72
2023/07/19 07:09:58;;;;;;;1999.90;999.90;;;19.70;99.90;;;;;;5049316;28;20056;-72
2023/07/19 07:12:23;;;;;;;1999.90;999.90;;;19.60;99.90;;;;;;5050685;28;20028;-77
2023/07/19 07:14:49;;;;;;;1999.90;999.90;;;19.80;99.90;;;;;;5031973;28;20049;-72
2023/07/19 07:17:15;;;;;;;1999.90;999.90;;;20.00;99.90;;;;;;5049798;28;20419;-72
2023/07/19 07:19:40;;;;;;;1999.90;999.90;;;20.10;99.90;;;;;;5049816;28;20399;-77
2023/07/19 07:22:06;;;;;;;1999.90;999.90;;;20.20;99.90;;;;;;5050529;28;20403;-72
2023/07/19 07:24:31;;;;;;;1999.90;999.90;;;20.30;99.90;;;;;;5050105;28;20025;-72
2023/07/19 07:26:57;;;;;;;1999.90;999.90;;;20.40;99.90;;;;;;5047330;28;20091;-72
2023/07/19 07:29:23;;;;;;;1999.90;999.90;;;20.50;99.90;;;;;;5045170;28;20103;-77
2023/07/19 07:31:48;;;;;;;1999.90;999.90;;;20.60;99.90;;;;;;5054334;28;20535;-77
2023/07/19 07:34:14;;;;;;;1999.90;999.90;;;20.70;99.90;;;;;;5061473;28;20396;-72
2023/07/19 07:36:39;;;;;;;1999.90;999.90;;;20.80;99.90;;;;;;5053021;28;20041;-72
2023/07/19 07:39:06;;;;;;;1999.90;999.90;;;21.20;99.90;;;;;;5053602;28;20048;-72
2023/07/19 07:41:32;;;;;;;1999.90;999.90;;;21.80;99.90;;;;;;5036001;28;20040;-72
2023/07/19 07:43:58;;;;;;;1999.90;999.90;;;22.10;99.90;;;;;;5052975;28;20029;-77
2023/07/19 07:46:24;;;;;;;1999.90;999.90;;;22.20;99.90;;;;;;5051433;28;20029;-73
2023/07/19 07:48:50;;;;;;;1999.90;999.90;;;22.10;99.90;;;;;;5053344;28;20134;-72
2023/07/19 07:51:15;;;;;;;1999.90;999.90;;;22.10;99.90;;;;;;5053788;28;20033;-73
2023/07/19 07:53:41;;;;;;;1999.90;999.90;;;22.20;99.90;;;;;;5053717;28;20028;-72
2023/07/19 07:56:07;;;;;;;1999.90;999.90;;;22.20;99.90;;;;;;5053806;28;20029;-77
2023/07/19 07:58:32;;;;;;;1999.90;999.90;;;22.20;99.90;;;;;;5035663;28;20095;-77
2023/07/19 08:00:59;;;;;;;1999.90;999.90;;;22.10;99.90;;;;;;5053427;28;20051;-72
2023/07/19 08:03:25;;;;;;;1999.90;999.90;;;21.90;99.90;;;;;;5048904;28;20079;-72
2023/07/19 08:05:51;;;;;;;1999.90;999.90;;;22.00;99.90;;;;;;5051591;28;20033;-72
2023/07/19 08:08:17;;;;;;;1999.90;999.90;;;22.00;99.90;;;;;;5051456;28;20053;-77
2023/07/19 08:10:42;;;;;;;1999.90;999.90;;;21.70;99.90;;;;;;5053124;28;20059;-76
2023/07/19 08:13:08;;;;;;;1999.90;999.90;;;21.60;99.90;;;;;;5053291;28;20067;-72
2023/07/19 08:15:35;;;;;;;1999.90;999.90;;;21.70;99.90;;;;;;5052733;28;20045;-73
2023/07/19 08:18:00;;;;;;;1999.90;999.90;;;21.50;99.90;;;;;;5035253;28;20037;-72
2023/07/19 08:20:26;;;;;;;1999.90;999.90;;;21.20;99.90;;;;;;5053413;28;20100;-73
2023/07/19 08:22:52;;;;;;;1999.90;999.90;;;21.10;99.90;;;;;;5052267;28;20117;-76
2023/07/19 08:25:19;;;;;;;1999.90;999.90;;;21.10;99.90;;;;;;5051173;28;20037;-77
2023/07/19 08:27:45;;;;;;;1999.90;999.90;;;21.10;99.90;;;;;;5052803;28;20039;-77
2023/07/19 08:30:15;;;;;;;1999.90;999.90;;;21.20;99.90;;;;;;5053169;28;20025;-73
2023/07/19 08:32:48;;;;;;;1999.90;999.90;;;21.30;99.90;;;;;;5052506;28;20029;-72
2023/07/19 08:35:14;;;;;;;1999.90;999.90;;;21.30;99.90;;;;;;5052089;28;20025;-77
2023/07/19 08:37:43;;;;;;;1999.90;999.90;;;21.10;99.90;;;;;;5052127;28;20033;-77
2023/07/19 08:40:16;;;;;;;1999.90;999.90;;;21.10;99.90;;;;;;5037930;28;20089;-73
2023/07/19 08:42:42;;;;;;;1999.90;999.90;;;21.60;99.90;;;;;;5053336;28;20060;-73
2023/07/19 08:45:10;;;;;;;1999.90;999.90;;;22.10;99.90;;;;;;5051786;28;20096;-73
2023/07/19 08:47:38;;;;;;;1999.90;999.90;;;22.90;99.90;;;;;;5051056;28;20033;-73
2023/07/19 08:50:04;;;;;;;1999.90;999.90;;;23.80;99.90;;;;;;5051890;28;20487;-73
2023/07/19 08:52:31;;;;;;;1999.90;999.90;;;25.70;99.90;;;;;;5052684;28;20411;-73
2023/07/19 08:54:57;;;;;;;1999.90;999.90;;;25.50;99.90;;;;;;5034009;28;20021;-73
2023/07/19 08:57:22;;;;;;;1999.90;999.90;;;25.10;99.90;;;;;;5052018;28;20484;-72
2023/07/19 08:59:48;;;;;;;1999.90;999.90;;;25.00;99.90;;;;;;5053845;28;20437;-72
2023/07/19 09:02:14;;;;;;;1999.90;999.90;;;24.40;99.90;;;;;;5036680;28;20037;-72
2023/07/19 09:04:39;;;;;;;1999.90;999.90;;;24.10;99.90;;;;;;5052919;28;20459;-72
2023/07/19 09:07:05;;;;;;;1999.90;999.90;;;24.20;99.90;;;;;;5049512;28;20043;-72
2023/07/19 09:09:32;;;;;;;1999.90;999.90;;;25.70;99.90;;;;;;5051303;28;20043;-72
2023/07/19 09:11:58;;;;;;;1999.90;999.90;;;25.10;99.90;;;;;;5050816;28;20178;-73
2023/07/19 09:14:37;;;;;;;1999.90;999.90;;;24.90;99.90;;;;;;5052408;28;20021;-73
2023/07/19 09:17:03;;;;;;;1999.90;999.90;;;24.20;99.90;;;;;;5057843;28;20056;-76
2023/07/19 09:19:28;;;;;;;1999.90;999.90;;;24.00;99.90;;;;;;5063162;28;20052;-73
2023/07/19 09:21:56;;;;;;;1999.90;999.90;;;23.40;99.90;;;;;;5052707;28;20041;-72
2023/07/19 09:24:22;;;;;;;1999.90;999.90;;;23.70;99.90;;;;;;5051273;28;20024;-72
2023/07/19 09:26:49;;;;;;;1999.90;999.90;;;23.70;99.90;;;;;;5045360;28;20037;-76
2023/07/19 09:29:15;;;;;;;1999.90;999.90;;;26.60;99.90;;;;;;5064180;28;20020;-77
2023/07/19 09:31:54;;;;;;;1999.90;999.90;;;28.80;99.90;;;;;;5063075;28;20021;-73
2023/07/19 09:34:26;;;;;;;1999.90;999.90;;;28.20;99.90;;;;;;5052728;28;20065;-72
2023/07/19 09:36:53;;;;;;;1999.90;999.90;;;27.60;99.90;;;;;;5053128;28;20120;-72
2023/07/19 09:39:19;;;;;;;1999.90;999.90;;;26.40;99.90;;;;;;5053374;28;20048;-78
2023/07/19 09:41:46;;;;;;;1999.90;999.90;;;24.80;99.90;;;;;;5053257;28;20092;-78
2023/07/19 09:44:15;;;;;;;1999.90;999.90;;;24.00;99.90;;;;;;5051538;28;20025;-72
2023/07/19 09:46:45;;;;;;;1999.90;999.90;;;23.50;99.90;;;;;;5050868;28;20025;-73
2023/07/19 09:49:11;;;;;;;1999.90;999.90;;;23.20;99.90;;;;;;5051692;28;20086;-73
2023/07/19 09:51:42;;;;;;;1999.90;999.90;;;22.80;99.90;;;;;;5051179;28;20024;-73
2023/07/19 09:54:12;;;;;;;1999.90;999.90;;;22.60;99.90;;;;;;5052612;28;20024;-73
2023/07/19 09:56:39;;;;;;;1999.90;999.90;;;22.60;99.90;;;;;;5039334;28;20090;-72
2023/07/19 09:59:10;;;;;;;1999.90;999.90;;;22.20;99.90;;;;;;5049620;28;20188;-73
2023/07/19 10:01:37;;;;;;;1999.90;999.90;;;22.10;99.90;;;;;;5053629;28;20393;-73
2023/07/19 10:04:24;;;;;;;1999.90;999.90;;;22.70;99.90;;;;;;5050420;28;20037;-73
2023/07/19 10:07:03;;;;;;;1999.90;999.90;;;23.50;99.90;;;;;;5032516;28;20036;-78
2023/07/19 10:09:30;;;;;;;1999.90;999.90;;;24.30;99.90;;;;;;5053277;28;20028;-78
2023/07/19 10:12:01;;;;;;;1999.90;999.90;;;24.40;99.90;;;;;;5050498;28;20029;-72
2023/07/19 10:14:28;;;;;;;1999.90;999.90;;;24.50;99.90;;;;;;5052645;28;20025;-73
2023/07/19 10:16:58;;;;;;;1999.90;999.90;;;24.00;99.90;;;;;;5056702;28;20790;-73
2023/07/19 10:19:24;;;;;;;1999.90;999.90;;;23.50;99.90;;;;;;5050371;28;20021;-78
2023/07/19 10:22:06;;;;;;;1999.90;999.90;;;23.20;99.90;;;;;;5040978;28;20119;-72
2023/07/19 10:24:36;;;;;;;1999.90;999.90;;;22.70;99.90;;;;;;5038843;28;20056;-73
2023/07/19 10:27:05;;;;;;;1999.90;999.90;;;22.20;99.90;;;;;;5052349;28;20044;-73
2023/07/19 10:29:44;;;;;;;1999.90;999.90;;;22.00;99.90;;;;;;5050361;28;20021;-72
2023/07/19 10:32:11;;;;;;;1999.90;999.90;;;21.70;99.90;;;;;;5046676;28;20025;-73
2023/07/19 10:34:37;;;;;;;1999.90;999.90;;;22.70;99.90;;;;;;5074679;28;20021;-78
2023/07/19 10:37:05;;;;;;;1999.90;999.90;;;23.90;99.90;;;;;;5049960;28;20108;-72
2023/07/19 10:39:32;;;;;;;1999.90;999.90;;;24.70;99.90;;;;;;5044035;28;20403;-71
2023/07/19 10:42:01;;;;;;;1999.90;999.90;;;24.20;99.90;;;;;;5041409;28;20110;-71
2023/07/19 10:44:27;;;;;;;1999.90;999.90;;;22.70;99.90;;;;;;5050113;28;20035;-75
2023/07/19 10:46:54;;;;;;;1999.90;999.90;;;21.70;99.90;;;;;;5049197;28;20501;-70
2023/07/19 10:49:22;;;;;;;1999.90;999.90;;;21.10;99.90;;;;;;5077414;28;20551;-70
2023/07/19 10:51:55;;;;;;;1999.90;999.90;;;20.80;99.90;;;;;;5049026;28;20037;-70
2023/07/19 10:54:21;;;;;;;;;;;21.00;99.90;;;;;;5049736;28;20491;-71
2023/07/19 10:56:53;;;;;;;1999.90;999.90;;;22.50;99.90;;;;;;5049396;28;19995;-71
2023/07/19 10:59:19;;;;;;;1999.90;999.90;;;22.30;99.90;;;;;;5032259;28;20071;-71
2023/07/19 11:01:48;;;;;;;1999.90;999.90;;;21.60;99.90;;;;;;5049489;28;20055;-71
2023/07/19 11:04:15;;;;;;;1999.90;999.90;;;21.30;99.90;;;;;;5050283;28;20091;-76
2023/07/19 11:07:03;;;;;;;1999.90;999.90;;;21.70;99.90;;;;;;5049570;28;20058;-71
2023/07/19 11:09:29;;;;;;;1999.90;999.90;;;22.50;99.90;;;;;;5049440;28;20017;-71
2023/07/19 11:11:55;;;;;;;1999.90;999.90;;;23.10;99.90;;;;;;5049007;28;20094;-76
2023/07/19 11:14:33;;;;;;;1999.90;999.90;;;23.20;99.90;;;;;;5034686;28;20029;-72
2023/07/19 11:16:59;;;;;;;1999.90;999.90;;;23.30;99.90;;;;;;5043886;28;20511;-72
2023/07/19 11:19:40;;;;;;;1999.90;999.90;;;23.80;99.90;;;;;;5048254;28;20052;-72
2023/07/19 11:22:07;;;;;;;1999.90;999.90;;;23.80;99.90;;;;;;5029248;28;20075;-73
2023/07/19 11:24:38;;;;;;;1999.90;999.90;;;23.60;99.90;;;;;;5035216;28;20407;-72
2023/07/19 11:27:04;;;;;;;1999.90;999.90;;;24.00;99.90;;;;;;5048773;28;20088;-73
2023/07/19 11:29:33;;;;;;;1999.90;999.90;;;24.60;99.90;;;;;;5049323;28;20064;-73
2023/07/19 11:32:20;;;;;;;1999.90;999.90;;;23.80;99.90;;;;;;5052615;28;20021;-72
2023/07/19 11:34:47;;;;;;;1999.90;999.90;;;23.10;99.90;;;;;;5048542;28;20079;-73
2023/07/19 11:37:26;;;;;;;1999.90;999.90;;;23.20;99.90;;;;;;5033307;28;20028;-78
2023/07/19 11:39:53;;;;;;;1999.90;999.90;;;24.30;99.90;;;;;;5047785;28;20120;-78
2023/07/19 11:42:58;;;;;;;1999.90;999.90;;;24.50;99.90;;;;;;5066108;28;20029;-73
2023/07/19 11:45:27;;;;;;;1999.90;999.90;;;24.70;99.90;;;;;;5045303;28;20045;-72
2023/07/19 11:48:01;;;;;;;1999.90;999.90;;;25.40;99.90;;;;;;5048058;28;20158;-73
2023/07/19 11:50:26;;;;;;;1999.90;999.90;;;24.40;99.90;;;;;;5047872;28;20025;-76
2023/07/19 11:53:04;;;;;;;1999.90;999.90;;;23.60;99.90;;;;;;5046312;28;20025;-73
2023/07/19 11:55:31;;;;;;;1999.90;999.90;;;23.40;99.90;;;;;;5040942;28;20036;-73
2023/07/19 11:58:02;;;;;;;1999.90;999.90;;;23.60;99.90;;;;;;5036002;28;20113;-73